sensor_id;sensor_type;location;lat;lon;timestamp;pressure;altitude;pressure_sealevel;temperature;humidity
5146;BME280;2591;48.144;15.152;2022-07-17T00:01:33;75678.63;;;-144.65;88.42
5146;BME280;2591;48.144;15.152;2022-07-17T00:04:04;75682.72;;;-144.65;87.69
5146;BME280;2591;48.144;15.152;2022-07-17T00:06:34;75684.75;;;-144.65;87.25
5146;BME280;2591;48.144;15.152;2022-07-17T00:09:03;75678.63;;;-144.65;87.63
5146;BME280;2591;48.144;15.152;2022-07-17T00:11:32;75686.78;;;-144.65;87.99
5146;BME280;2591;48.144;15.152;2022-07-17T00:14:02;75684.75;;;-144.65;87.23
5146;BME280;2591;48.144;15.152;2022-07-17T00:16:32;75686.78;;;-144.65;86.83
5146;BME280;2591;48.144;15.152;2022-07-17T00:19:00;75694.94;;;-144.65;87.15
5146;BME280;2591;48.144;15.152;2022-07-17T00:21:31;75694.94;;;-144.65;88.05
5146;BME280;2591;48.144;15.152;2022-07-17T00:24:00;75707.19;;;-144.65;89.36
5146;BME280;2591;48.144;15.152;2022-07-17T00:26:29;75715.34;;;-144.65;93.18
5146;BME280;2591;48.144;15.152;2022-07-17T00:28:58;75727.56;;;-144.65;93.87
5146;BME280;2591;48.144;15.152;2022-07-17T00:31:27;75745.91;;;-144.65;92.98
5146;BME280;2591;48.144;15.152;2022-07-17T00:34:01;75760.19;;;-144.65;94.17
5146;BME280;2591;48.144;15.152;2022-07-17T00:36:30;75772.41;;;-144.65;95.84
5146;BME280;2591;48.144;15.152;2022-07-17T00:39:01;75776.50;;;-144.65;96.80
5146;BME280;2591;48.144;15.152;2022-07-17T00:41:31;75782.59;;;-144.65;97.33
5146;BME280;2591;48.144;15.152;2022-07-17T00:44:04;75788.72;;;-144.65;96.25
5146;BME280;2591;48.144;15.152;2022-07-17T00:46:32;75794.84;;;-144.65;96.49
5146;BME280;2591;48.144;15.152;2022-07-17T00:49:05;75788.72;;;-144.65;95.52
5146;BME280;2591;48.144;15.152;2022-07-17T00:51:33;75788.72;;;-144.65;95.42
5146;BME280;2591;48.144;15.152;2022-07-17T00:54:03;75800.97;;;-144.65;94.16
5146;BME280;2591;48.144;15.152;2022-07-17T00:56:37;75809.13;;;-144.65;94.46
5146;BME280;2591;48.144;15.152;2022-07-17T00:59:06;75807.06;;;-144.65;94.36
5146;BME280;2591;48.144;15.152;2022-07-17T01:01:37;75805.03;;;-144.65;95.64
5146;BME280;2591;48.144;15.152;2022-07-17T01:04:06;75809.13;;;-144.65;96.85
5146;BME280;2591;48.144;15.152;2022-07-17T01:06:34;75813.19;;;-144.65;99.73
5146;BME280;2591;48.144;15.152;2022-07-17T01:09:05;75817.25;;;-144.65;100.00
5146;BME280;2591;48.144;15.152;2022-07-17T01:11:34;75821.34;;;-144.65;100.00
5146;BME280;2591;48.144;15.152;2022-07-17T01:14:03;75821.34;;;-144.65;100.00
5146;BME280;2591;48.144;15.152;2022-07-17T01:16:32;75837.66;;;-144.65;100.00
5146;BME280;2591;48.144;15.152;2022-07-17T01:19:00;75853.97;;;-144.65;100.00
5146;BME280;2591;48.144;15.152;2022-07-17T01:21:41;75853.97;;;-144.65;100.00
5146;BME280;2591;48.144;15.152;2022-07-17T01:24:11;75853.97;;;-144.65;100.00
5146;BME280;2591;48.144;15.152;2022-07-17T01:26:40;75858.03;;;-144.65;100.00
5146;BME280;2591;48.144;15.152;2022-07-17T01:29:14;75858.03;;;-144.65;100.00
5146;BME280;2591;48.144;15.152;2022-07-17T01:31:45;75856.00;;;-144.65;100.00
5146;BME280;2591;48.144;15.152;2022-07-17T01:34:13;75862.13;;;-144.65;100.00
5146;BME280;2591;48.144;15.152;2022-07-17T01:36:44;75862.13;;;-144.65;100.00
5146;BME280;2591;48.144;15.152;2022-07-17T01:39:15;75866.19;;;-144.65;100.00
5146;BME280;2591;48.144;15.152;2022-07-17T01:41:43;75872.31;;;-144.65;100.00
5146;BME280;2591;48.144;15.152;2022-07-17T01:44:13;75876.38;;;-144.65;100.00
5146;BME280;2591;48.144;15.152;2022-07-17T01:46:43;75882.50;;;-144.65;100.00
5146;BME280;2591;48.144;15.152;2022-07-17T01:49:12;75898.81;;;-144.65;100.00
5146;BME280;2591;48.144;15.152;2022-07-17T01:51:41;75900.84;;;-144.65;100.00
5146;BME280;2591;48.144;15.152;2022-07-17T01:54:13;75902.88;;;-144.65;100.00
5146;BME280;2591;48.144;15.152;2022-07-17T01:56:42;75898.81;;;-144.65;100.00
5146;BME280;2591;48.144;15.152;2022-07-17T01:59:10;75898.81;;;-144.65;100.00
5146;BME280;2591;48.144;15.152;2022-07-17T02:01:38;75898.81;;;-144.65;100.00
5146;BME280;2591;48.144;15.152;2022-07-17T02:04:07;75898.81;;;-144.65;100.00
5146;BME280;2591;48.144;15.152;2022-07-17T02:06:37;75904.94;;;-144.65;100.00
5146;BME280;2591;48.144;15.152;2022-07-17T02:09:07;75911.03;;;-144.65;100.00
5146;BME280;2591;48.144;15.152;2022-07-17T02:11:36;75923.28;;;-144.65;100.00
5146;BME280;2591;48.144;15.152;2022-07-17T02:14:06;75921.25;;;-144.65;100.00
5146;BME280;2591;48.144;15.152;2022-07-17T02:16:35;75927.34;;;-144.65;100.00
5146;BME280;2591;48.144;15.152;2022-07-17T02:19:05;75935.50;;;-144.65;100.00
5146;BME280;2591;48.144;15.152;2022-07-17T02:21:34;75931.44;;;-144.65;100.00
5146;BME280;2591;48.144;15.152;2022-07-17T02:24:03;75937.53;;;-144.65;100.00
5146;BME280;2591;48.144;15.152;2022-07-17T02:26:32;75943.66;;;-144.65;100.00
5146;BME280;2591;48.144;15.152;2022-07-17T02:29:05;75955.91;;;-144.65;100.00
5146;BME280;2591;48.144;15.152;2022-07-17T02:31:34;75955.91;;;-144.65;100.00
5146;BME280;2591;48.144;15.152;2022-07-17T02:34:04;75957.94;;;-144.65;100.00
5146;BME280;2591;48.144;15.152;2022-07-17T02:36:34;75972.22;;;-144.65;100.00
5146;BME280;2591;48.144;15.152;2022-07-17T02:39:02;75972.22;;;-144.65;100.00
5146;BME280;2591;48.144;15.152;2022-07-17T02:41:30;75976.28;;;-144.65;100.00
5146;BME280;2591;48.144;15.152;2022-07-17T02:44:01;75988.50;;;-144.65;100.00
5146;BME280;2591;48.144;15.152;2022-07-17T02:46:33;75988.50;;;-144.65;100.00
5146;BME280;2591;48.144;15.152;2022-07-17T02:49:05;76004.81;;;-144.65;100.00
5146;BME280;2591;48.144;15.152;2022-07-17T02:51:35;76010.94;;;-144.65;100.00
5146;BME280;2591;48.144;15.152;2022-07-17T02:54:04;76010.94;;;-144.65;100.00
5146;BME280;2591;48.144;15.152;2022-07-17T02:56:32;76021.13;;;-144.65;100.00
5146;BME280;2591;48.144;15.152;2022-07-17T02:59:09;76041.53;;;-144.65;100.00
5146;BME280;2591;48.144;15.152;2022-07-17T03:01:41;76045.59;;;-144.65;100.00
5146;BME280;2591;48.144;15.152;2022-07-17T03:04:11;76049.69;;;-144.65;100.00
5146;BME280;2591;48.144;15.152;2022-07-17T03:06:39;76049.69;;;-144.65;100.00
5146;BME280;2591;48.144;15.152;2022-07-17T03:09:07;76049.69;;;-144.65;100.00
5146;BME280;2591;48.144;15.152;2022-07-17T03:11:35;76049.69;;;-144.65;100.00
5146;BME280;2591;48.144;15.152;2022-07-17T03:14:05;76047.63;;;-144.65;100.00
5146;BME280;2591;48.144;15.152;2022-07-17T03:16:34;76049.69;;;-144.65;100.00
5146;BME280;2591;48.144;15.152;2022-07-17T03:19:03;76049.69;;;-144.65;100.00
5146;BME280;2591;48.144;15.152;2022-07-17T03:21:33;76043.56;;;-144.65;100.00
5146;BME280;2591;48.144;15.152;2022-07-17T03:24:02;76043.56;;;-144.65;100.00
5146;BME280;2591;48.144;15.152;2022-07-17T03:26:31;76045.59;;;-144.65;100.00
5146;BME280;2591;48.144;15.152;2022-07-17T03:28:59;76053.75;;;-144.65;100.00
5146;BME280;2591;48.144;15.152;2022-07-17T03:31:30;76057.84;;;-144.65;100.00
5146;BME280;2591;48.144;15.152;2022-07-17T03:34:00;76066.00;;;-144.65;100.00
5146;BME280;2591;48.144;15.152;2022-07-17T03:36:32;76076.19;;;-144.65;100.00
5146;BME280;2591;48.144;15.152;2022-07-17T03:39:00;76074.16;;;-144.65;100.00
5146;BME280;2591;48.144;15.152;2022-07-17T03:41:31;76074.16;;;-144.65;100.00
5146;BME280;2591;48.144;15.152;2022-07-17T03:44:01;76072.09;;;-144.65;100.00
5146;BME280;2591;48.144;15.152;2022-07-17T03:46:30;76094.53;;;-144.65;100.00
5146;BME280;2591;48.144;15.152;2022-07-17T03:48:59;76110.84;;;-144.65;100.00
5146;BME280;2591;48.144;15.152;2022-07-17T03:51:27;76102.69;;;-144.65;100.00
5146;BME280;2591;48.144;15.152;2022-07-17T03:53:58;76102.69;;;-144.65;100.00
5146;BME280;2591;48.144;15.152;2022-07-17T03:56:27;76096.56;;;-144.65;100.00
5146;BME280;2591;48.144;15.152;2022-07-17T03:58:56;76098.59;;;-144.65;100.00
5146;BME280;2591;48.144;15.152;2022-07-17T04:01:26;76096.56;;;-144.65;100.00
5146;BME280;2591;48.144;15.152;2022-07-17T04:03:55;76098.59;;;-144.65;100.00
5146;BME280;2591;48.144;15.152;2022-07-17T04:06:24;76090.44;;;-144.65;100.00
5146;BME280;2591;48.144;15.152;2022-07-17T04:08:52;76078.22;;;-144.65;100.00
5146;BME280;2591;48.144;15.152;2022-07-17T04:11:24;76074.16;;;-144.65;100.00
5146;BME280;2591;48.144;15.152;2022-07-17T04:13:52;76078.22;;;-144.65;100.00
5146;BME280;2591;48.144;15.152;2022-07-17T04:16:20;76070.06;;;-144.65;100.00
5146;BME280;2591;48.144;15.152;2022-07-17T04:18:50;76070.06;;;-144.65;100.00
5146;BME280;2591;48.144;15.152;2022-07-17T04:21:20;76068.03;;;-144.65;100.00
5146;BME280;2591;48.144;15.152;2022-07-17T04:23:48;76072.09;;;-144.65;100.00
5146;BME280;2591;48.144;15.152;2022-07-17T04:26:18;76070.06;;;-144.65;100.00
5146;BME280;2591;48.144;15.152;2022-07-17T04:28:48;76063.94;;;-144.65;100.00
5146;BME280;2591;48.144;15.152;2022-07-17T04:31:18;76066.00;;;-144.65;100.00
5146;BME280;2591;48.144;15.152;2022-07-17T04:33:46;76074.16;;;-144.65;100.00
5146;BME280;2591;48.144;15.152;2022-07-17T04:36:14;76061.91;;;-144.65;100.00
5146;BME280;2591;48.144;15.152;2022-07-17T04:38:42;76059.88;;;-144.65;100.00
5146;BME280;2591;48.144;15.152;2022-07-17T04:41:11;76045.59;;;-144.65;100.00
5146;BME280;2591;48.144;15.152;2022-07-17T04:43:39;76033.38;;;-144.65;100.00
5146;BME280;2591;48.144;15.152;2022-07-17T04:46:10;76033.38;;;-144.65;100.00
5146;BME280;2591;48.144;15.152;2022-07-17T04:48:39;76025.22;;;-144.65;100.00
5146;BME280;2591;48.144;15.152;2022-07-17T04:51:08;76029.28;;;-144.65;100.00
5146;BME280;2591;48.144;15.152;2022-07-17T04:53:36;76029.28;;;-144.65;100.00
5146;BME280;2591;48.144;15.152;2022-07-17T04:56:07;76029.28;;;-144.65;100.00
5146;BME280;2591;48.144;15.152;2022-07-17T04:58:35;76025.22;;;-144.65;100.00
5146;BME280;2591;48.144;15.152;2022-07-17T05:01:03;76025.22;;;-144.65;100.00
5146;BME280;2591;48.144;15.152;2022-07-17T05:03:33;76017.06;;;-144.65;100.00
5146;BME280;2591;48.144;15.152;2022-07-17T05:06:02;76004.81;;;-144.65;100.00
5146;BME280;2591;48.144;15.152;2022-07-17T05:08:33;75998.72;;;-144.65;100.00
5146;BME280;2591;48.144;15.152;2022-07-17T05:11:01;75992.59;;;-144.65;100.00
5146;BME280;2591;48.144;15.152;2022-07-17T05:13:30;75988.50;;;-144.65;100.00
5146;BME280;2591;48.144;15.152;2022-07-17T05:16:01;75980.34;;;-144.65;100.00
5146;BME280;2591;48.144;15.152;2022-07-17T05:18:29;75978.31;;;-144.65;100.00
5146;BME280;2591;48.144;15.152;2022-07-17T05:20:58;75978.31;;;-144.65;100.00
5146;BME280;2591;48.144;15.152;2022-07-17T05:23:28;75970.16;;;-144.65;100.00
5146;BME280;2591;48.144;15.152;2022-07-17T05:25:58;75968.13;;;-144.65;100.00
5146;BME280;2591;48.144;15.152;2022-07-17T05:28:27;75955.91;;;-144.65;100.00
5146;BME280;2591;48.144;15.152;2022-07-17T05:31:05;75943.66;;;-144.65;100.00
5146;BME280;2591;48.144;15.152;2022-07-17T05:33:34;75939.59;;;-144.65;99.91
5146;BME280;2591;48.144;15.152;2022-07-17T05:36:04;75923.28;;;-144.65;100.00
5146;BME280;2591;48.144;15.152;2022-07-17T05:38:33;75911.03;;;-144.65;99.02
5146;BME280;2591;48.144;15.152;2022-07-17T05:41:01;75911.03;;;-144.65;98.23
5146;BME280;2591;48.144;15.152;2022-07-17T05:43:30;75902.88;;;-144.65;94.95
5146;BME280;2591;48.144;15.152;2022-07-17T05:45:58;75878.44;;;-144.65;95.77
5146;BME280;2591;48.144;15.152;2022-07-17T05:48:30;75882.50;;;-144.65;92.45
5146;BME280;2591;48.144;15.152;2022-07-17T05:50:58;75878.44;;;-144.65;93.07
5146;BME280;2591;48.144;15.152;2022-07-17T05:53:33;75878.44;;;-144.65;92.73
5146;BME280;2591;48.144;15.152;2022-07-17T05:56:01;75870.28;;;-144.65;93.23
5146;BME280;2591;48.144;15.152;2022-07-17T05:58:32;75866.19;;;-144.65;91.91
5146;BME280;2591;48.144;15.152;2022-07-17T06:01:00;75853.97;;;-144.65;92.18
5146;BME280;2591;48.144;15.152;2022-07-17T06:03:28;75835.63;;;-144.65;89.76
5146;BME280;2591;48.144;15.152;2022-07-17T06:05:57;75827.47;;;-144.65;84.72
5146;BME280;2591;48.144;15.152;2022-07-17T06:08:25;75813.19;;;-144.65;82.07
5146;BME280;2591;48.144;15.152;2022-07-17T06:10:56;75794.84;;;-144.65;83.63
5146;BME280;2591;48.144;15.152;2022-07-17T06:13:25;75780.56;;;-144.65;81.82
5146;BME280;2591;48.144;15.152;2022-07-17T06:15:54;75772.41;;;-144.65;81.00
5146;BME280;2591;48.144;15.152;2022-07-17T06:18:26;75764.25;;;-144.65;81.30
5146;BME280;2591;48.144;15.152;2022-07-17T06:20:57;75747.94;;;-144.65;79.61
5146;BME280;2591;48.144;15.152;2022-07-17T06:23:24;75737.75;;;-144.65;80.71
5146;BME280;2591;48.144;15.152;2022-07-17T06:25:53;75727.56;;;-144.65;78.22
5146;BME280;2591;48.144;15.152;2022-07-17T06:28:23;75715.34;;;-144.65;78.37
5146;BME280;2591;48.144;15.152;2022-07-17T06:30:51;75701.06;;;-144.65;77.35
5146;BME280;2591;48.144;15.152;2022-07-17T06:33:20;75684.75;;;-144.65;77.42
5146;BME280;2591;48.144;15.152;2022-07-17T06:35:48;75678.63;;;-144.65;76.74
5146;BME280;2591;48.144;15.152;2022-07-17T06:38:18;75658.25;;;-144.65;77.07
5146;BME280;2591;48.144;15.152;2022-07-17T06:40:49;75637.88;;;-144.65;76.94
5146;BME280;2591;48.144;15.152;2022-07-17T06:43:19;75625.63;;;-144.65;74.73
5146;BME280;2591;48.144;15.152;2022-07-17T06:45:51;75621.56;;;-144.65;72.61
5146;BME280;2591;48.144;15.152;2022-07-17T06:48:22;75605.25;;;-144.65;71.36
5146;BME280;2591;48.144;15.152;2022-07-17T06:50:51;75601.19;;;-144.65;71.48
5146;BME280;2591;48.144;15.152;2022-07-17T06:53:21;75588.94;;;-144.65;69.15
5146;BME280;2591;48.144;15.152;2022-07-17T06:55:52;75574.69;;;-144.65;68.36
5146;BME280;2591;48.144;15.152;2022-07-17T06:58:21;75560.41;;;-144.65;65.61
5146;BME280;2591;48.144;15.152;2022-07-17T07:00:50;75564.47;;;-144.65;66.40
5146;BME280;2591;48.144;15.152;2022-07-17T07:03:21;75562.44;;;-144.65;67.22
5146;BME280;2591;48.144;15.152;2022-07-17T07:05:49;75515.56;;;-144.65;63.39
5146;BME280;2591;48.144;15.152;2022-07-17T07:08:20;75503.34;;;-144.65;62.80
5146;BME280;2591;48.144;15.152;2022-07-17T07:10:49;75495.19;;;-144.65;62.16
5146;BME280;2591;48.144;15.152;2022-07-17T07:13:18;75482.94;;;-144.65;60.94
5146;BME280;2591;48.144;15.152;2022-07-17T07:15:46;75474.78;;;-144.65;60.15
5146;BME280;2591;48.144;15.152;2022-07-17T07:18:17;75466.63;;;-144.65;58.91
5146;BME280;2591;48.144;15.152;2022-07-17T07:20:45;75452.38;;;-144.65;61.40
5146;BME280;2591;48.144;15.152;2022-07-17T07:23:14;75429.94;;;-144.65;61.73
5146;BME280;2591;48.144;15.152;2022-07-17T07:25:44;75438.09;;;-144.65;61.01
5146;BME280;2591;48.144;15.152;2022-07-17T07:28:15;75423.84;;;-144.65;59.80
5146;BME280;2591;48.144;15.152;2022-07-17T07:30:44;75413.66;;;-144.65;59.38
5146;BME280;2591;48.144;15.152;2022-07-17T07:33:12;75395.28;;;-144.65;57.60
5146;BME280;2591;48.144;15.152;2022-07-17T07:35:44;75376.94;;;-144.65;55.99
5146;BME280;2591;48.144;15.152;2022-07-17T07:38:14;75348.41;;;-144.65;54.09
5146;BME280;2591;48.144;15.152;2022-07-17T07:40:41;75385.09;;;-144.65;54.93
5146;BME280;2591;48.144;15.152;2022-07-17T07:43:12;75405.50;;;-144.65;54.98
5146;BME280;2591;48.144;15.152;2022-07-17T07:45:40;75419.75;;;-144.65;56.26
5146;BME280;2591;48.144;15.152;2022-07-17T07:48:09;75409.56;;;-144.65;56.51
5146;BME280;2591;48.144;15.152;2022-07-17T07:50:40;75381.03;;;-144.65;55.53
5146;BME280;2591;48.144;15.152;2022-07-17T07:53:10;75364.72;;;-144.65;56.30
5146;BME280;2591;48.144;15.152;2022-07-17T07:55:39;75332.09;;;-144.65;53.50
5146;BME280;2591;48.144;15.152;2022-07-17T07:58:10;75328.03;;;-144.65;54.30
5146;BME280;2591;48.144;15.152;2022-07-17T08:00:42;75307.66;;;-144.65;53.61
5146;BME280;2591;48.144;15.152;2022-07-17T08:03:11;75303.56;;;-144.65;52.19
5146;BME280;2591;48.144;15.152;2022-07-17T08:05:40;75291.34;;;-144.65;52.25
5146;BME280;2591;48.144;15.152;2022-07-17T08:08:10;75291.34;;;-144.65;51.84
5146;BME280;2591;48.144;15.152;2022-07-17T08:10:39;75301.53;;;-144.65;53.09
5146;BME280;2591;48.144;15.152;2022-07-17T08:13:07;75281.16;;;-144.65;53.42
5146;BME280;2591;48.144;15.152;2022-07-17T08:15:36;75270.97;;;-144.65;52.97
5146;BME280;2591;48.144;15.152;2022-07-17T08:18:06;75264.84;;;-144.65;51.84
5146;BME280;2591;48.144;15.152;2022-07-17T08:20:36;75266.88;;;-144.65;50.44
5146;BME280;2591;48.144;15.152;2022-07-17T08:23:04;75279.09;;;-144.65;52.55
5146;BME280;2591;48.144;15.152;2022-07-17T08:25:37;75234.28;;;-144.65;49.62
5146;BME280;2591;48.144;15.152;2022-07-17T08:28:07;75226.13;;;-144.65;49.07
5146;BME280;2591;48.144;15.152;2022-07-17T08:30:35;75230.19;;;-144.65;50.71
5146;BME280;2591;48.144;15.152;2022-07-17T08:33:07;75205.72;;;-144.65;48.82
5146;BME280;2591;48.144;15.152;2022-07-17T08:35:36;75205.72;;;-144.65;49.46
5146;BME280;2591;48.144;15.152;2022-07-17T08:38:06;75181.28;;;-144.65;48.20
5146;BME280;2591;48.144;15.152;2022-07-17T08:40:38;75191.47;;;-144.65;49.22
5146;BME280;2591;48.144;15.152;2022-07-17T08:43:07;75193.50;;;-144.65;49.48
5146;BME280;2591;48.144;15.152;2022-07-17T08:45:39;75207.78;;;-144.65;51.81
5146;BME280;2591;48.144;15.152;2022-07-17T08:48:17;75162.94;;;-144.65;49.17
5146;BME280;2591;48.144;15.152;2022-07-17T08:50:46;75148.66;;;-144.65;48.97
5146;BME280;2591;48.144;15.152;2022-07-17T08:53:15;75114.00;;;-144.65;47.68
5146;BME280;2591;48.144;15.152;2022-07-17T08:55:47;75142.53;;;-144.65;50.13
5146;BME280;2591;48.144;15.152;2022-07-17T08:58:16;75095.66;;;-144.65;48.53
5146;BME280;2591;48.144;15.152;2022-07-17T09:00:44;75075.28;;;-144.65;47.74
5146;BME280;2591;48.144;15.152;2022-07-17T09:03:15;75085.47;;;-144.65;46.81
5146;BME280;2591;48.144;15.152;2022-07-17T09:05:46;75091.59;;;-144.65;47.81
5146;BME280;2591;48.144;15.152;2022-07-17T09:08:17;75075.28;;;-144.65;48.64
5146;BME280;2591;48.144;15.152;2022-07-17T09:10:50;75030.44;;;-144.65;46.91
5146;BME280;2591;48.144;15.152;2022-07-17T09:13:25;75012.09;;;-144.65;46.15
5146;BME280;2591;48.144;15.152;2022-07-17T09:15:57;74989.69;;;-144.65;45.28
5146;BME280;2591;48.144;15.152;2022-07-17T09:18:27;75016.19;;;-144.65;45.29
5146;BME280;2591;48.144;15.152;2022-07-17T09:20:58;75001.91;;;-144.65;45.36
5146;BME280;2591;48.144;15.152;2022-07-17T09:23:27;74975.41;;;-144.65;46.41
5146;BME280;2591;48.144;15.152;2022-07-17T09:25:57;74920.38;;;-144.65;45.19
5146;BME280;2591;48.144;15.152;2022-07-17T09:28:27;74904.09;;;-144.65;44.70
5146;BME280;2591;48.144;15.152;2022-07-17T09:30:56;74891.84;;;-144.65;43.06
5146;BME280;2591;48.144;15.152;2022-07-17T09:33:27;74879.63;;;-144.65;42.03
5146;BME280;2591;48.144;15.152;2022-07-17T09:35:57;74889.81;;;-144.65;43.30
5146;BME280;2591;48.144;15.152;2022-07-17T09:38:41;74879.63;;;-144.65;44.45
5146;BME280;2591;48.144;15.152;2022-07-17T09:41:14;74826.63;;;-144.65;43.06
5146;BME280;2591;48.144;15.152;2022-07-17T09:43:47;74789.94;;;-144.65;41.85
5146;BME280;2591;48.144;15.152;2022-07-17T09:46:20;74781.81;;;-144.65;41.87
5146;BME280;2591;48.144;15.152;2022-07-17T09:48:52;74777.72;;;-144.65;42.00
5146;BME280;2591;48.144;15.152;2022-07-17T09:51:23;74812.38;;;-144.65;45.01
5146;BME280;2591;48.144;15.152;2022-07-17T09:53:54;74749.19;;;-144.65;42.05
5146;BME280;2591;48.144;15.152;2022-07-17T09:56:26;74724.75;;;-144.65;41.51
5146;BME280;2591;48.144;15.152;2022-07-17T09:59:00;74700.28;;;-144.65;41.30
5146;BME280;2591;48.144;15.152;2022-07-17T10:01:30;74657.47;;;-144.65;39.29
5146;BME280;2591;48.144;15.152;2022-07-17T10:04:15;74683.97;;;-144.65;39.53
5146;BME280;2591;48.144;15.152;2022-07-17T10:06:47;74704.34;;;-144.65;41.92
5146;BME280;2591;48.144;15.152;2022-07-17T10:09:15;74653.41;;;-144.65;40.78
5146;BME280;2591;48.144;15.152;2022-07-17T10:11:48;74626.91;;;-144.65;39.19
5146;BME280;2591;48.144;15.152;2022-07-17T10:14:20;74618.75;;;-144.65;37.74
5146;BME280;2591;48.144;15.152;2022-07-17T10:16:48;74686.00;;;-144.65;39.78
5146;BME280;2591;48.144;15.152;2022-07-17T10:19:19;74655.44;;;-144.65;39.87
5146;BME280;2591;48.144;15.152;2022-07-17T10:21:54;74671.75;;;-144.65;39.80
5146;BME280;2591;48.144;15.152;2022-07-17T10:24:23;74732.88;;;-144.65;40.46
5146;BME280;2591;48.144;15.152;2022-07-17T10:26:53;74728.81;;;-144.65;40.28
5146;BME280;2591;48.144;15.152;2022-07-17T10:29:28;74745.13;;;-144.65;41.28
5146;BME280;2591;48.144;15.152;2022-07-17T10:31:59;74749.19;;;-144.65;40.41
5146;BME280;2591;48.144;15.152;2022-07-17T10:34:42;74671.75;;;-144.65;38.55
5146;BME280;2591;48.144;15.152;2022-07-17T10:37:22;74647.28;;;-144.65;39.35
5146;BME280;2591;48.144;15.152;2022-07-17T10:39:54;74588.19;;;-144.65;37.45
5146;BME280;2591;48.144;15.152;2022-07-17T10:42:52;74608.56;;;-144.65;40.13
5146;BME280;2591;48.144;15.152;2022-07-17T10:45:25;74571.91;;;-144.65;39.29
5146;BME280;2591;48.144;15.152;2022-07-17T10:47:57;74506.69;;;-144.65;36.37
5146;BME280;2591;48.144;15.152;2022-07-17T10:50:30;74561.69;;;-144.65;39.06
5146;BME280;2591;48.144;15.152;2022-07-17T10:53:09;74553.56;;;-144.65;40.86
5146;BME280;2591;48.144;15.152;2022-07-17T10:55:40;74455.72;;;-144.65;37.33
5146;BME280;2591;48.144;15.152;2022-07-17T10:58:16;74472.03;;;-144.65;38.32
5146;BME280;2591;48.144;15.152;2022-07-17T11:00:56;74472.03;;;-144.65;37.90
5146;BME280;2591;48.144;15.152;2022-07-17T11:03:26;74439.44;;;-144.65;37.86
5146;BME280;2591;48.144;15.152;2022-07-17T11:05:54;74378.28;;;-144.65;36.29
5146;BME280;2591;48.144;15.152;2022-07-17T11:08:25;74410.91;;;-144.65;37.72
5146;BME280;2591;48.144;15.152;2022-07-17T11:10:54;74390.53;;;-144.65;35.99
5146;BME280;2591;48.144;15.152;2022-07-17T11:13:24;74447.59;;;-144.65;37.53
5146;BME280;2591;48.144;15.152;2022-07-17T11:15:53;74429.25;;;-144.65;36.76
5146;BME280;2591;48.144;15.152;2022-07-17T11:18:21;74370.16;;;-144.65;35.80
5146;BME280;2591;48.144;15.152;2022-07-17T11:20:53;74386.44;;;-144.65;37.71
5146;BME280;2591;48.144;15.152;2022-07-17T11:23:25;74425.16;;;-144.65;37.43
5146;BME280;2591;48.144;15.152;2022-07-17T11:25:55;74386.44;;;-144.65;34.93
5146;BME280;2591;48.144;15.152;2022-07-17T11:28:33;74417.00;;;-144.65;35.23
5146;BME280;2591;48.144;15.152;2022-07-17T11:31:15;74439.44;;;-144.65;37.72
5146;BME280;2591;48.144;15.152;2022-07-17T11:33:52;74390.53;;;-144.65;37.22
5146;BME280;2591;48.144;15.152;2022-07-17T11:36:25;74455.72;;;-144.65;37.42
5146;BME280;2591;48.144;15.152;2022-07-17T11:38:56;74461.84;;;-144.65;36.23
5146;BME280;2591;48.144;15.152;2022-07-17T11:41:32;74484.25;;;-144.65;36.94
5146;BME280;2591;48.144;15.152;2022-07-17T11:44:06;74443.50;;;-144.65;35.96
5146;BME280;2591;48.144;15.152;2022-07-17T11:46:39;74427.22;;;-144.65;36.81
5146;BME280;2591;48.144;15.152;2022-07-17T11:49:09;74359.97;;;-144.65;35.84
5146;BME280;2591;48.144;15.152;2022-07-17T11:51:41;74319.19;;;-144.65;34.71
5146;BME280;2591;48.144;15.152;2022-07-17T11:54:12;74323.28;;;-144.65;34.52
5146;BME280;2591;48.144;15.152;2022-07-17T11:56:42;74364.03;;;-144.65;36.20
5146;BME280;2591;48.144;15.152;2022-07-17T11:59:24;74349.78;;;-144.65;34.04
5146;BME280;2591;48.144;15.152;2022-07-17T12:01:52;74321.25;;;-144.65;34.46
5146;BME280;2591;48.144;15.152;2022-07-17T12:04:21;74227.50;;;-144.65;32.54
5146;BME280;2591;48.144;15.152;2022-07-17T12:06:58;74205.09;;;-144.65;32.43
5146;BME280;2591;48.144;15.152;2022-07-17T12:09:32;74239.72;;;-144.65;33.71
5146;BME280;2591;48.144;15.152;2022-07-17T12:12:02;74198.97;;;-144.65;33.28
5146;BME280;2591;48.144;15.152;2022-07-17T12:14:32;74186.75;;;-144.65;32.45
5146;BME280;2591;48.144;15.152;2022-07-17T12:17:03;74249.91;;;-144.65;33.39
5146;BME280;2591;48.144;15.152;2022-07-17T12:19:34;74256.03;;;-144.65;32.45
5146;BME280;2591;48.144;15.152;2022-07-17T12:22:05;74272.34;;;-144.65;33.56
5146;BME280;2591;48.144;15.152;2022-07-17T12:24:37;74278.44;;;-144.65;34.60
5146;BME280;2591;48.144;15.152;2022-07-17T12:27:07;74245.84;;;-144.65;33.73
5146;BME280;2591;48.144;15.152;2022-07-17T12:29:38;74280.50;;;-144.65;34.66
5146;BME280;2591;48.144;15.152;2022-07-17T12:32:07;74203.06;;;-144.65;32.70
5146;BME280;2591;48.144;15.152;2022-07-17T12:34:40;74097.09;;;-144.65;29.25
5146;BME280;2591;48.144;15.152;2022-07-17T12:37:12;74156.19;;;-144.65;30.31
5146;BME280;2591;48.144;15.152;2022-07-17T12:39:41;74215.28;;;-144.65;33.45
5146;BME280;2591;48.144;15.152;2022-07-17T12:42:10;74162.31;;;-144.65;31.27
5146;BME280;2591;48.144;15.152;2022-07-17T12:44:40;74162.31;;;-144.65;31.67
5146;BME280;2591;48.144;15.152;2022-07-17T12:47:11;74137.84;;;-144.65;31.58
5146;BME280;2591;48.144;15.152;2022-07-17T12:49:40;74156.19;;;-144.65;32.02
5146;BME280;2591;48.144;15.152;2022-07-17T12:52:09;74166.38;;;-144.65;32.81
5146;BME280;2591;48.144;15.152;2022-07-17T12:54:38;74174.53;;;-144.65;32.35
5146;BME280;2591;48.144;15.152;2022-07-17T12:57:08;74129.69;;;-144.65;31.14
5146;BME280;2591;48.144;15.152;2022-07-17T12:59:39;74158.22;;;-144.65;31.02
5146;BME280;2591;48.144;15.152;2022-07-17T13:02:09;74215.28;;;-144.65;32.44